sensor_id;sensor_type;location;lat;lon;timestamp;pressure;altitude;pressure_sealevel;temperature;humidity
57562;BME280;43397;51.530;5.974;2023-04-09T00:00:18;76588.50;;;-145.90;46.07
57562;BME280;43397;51.530;5.974;2023-04-09T00:02:44;76468.91;;;-145.90;44.22
57562;BME280;43397;51.530;5.974;2023-04-09T00:05:09;76616.88;;;-145.90;44.99
57562;BME280;43397;51.530;5.974;2023-04-09T00:07:35;76531.75;;;-145.90;43.56
57562;BME280;43397;51.530;5.974;2023-04-09T00:10:01;76649.31;;;-145.90;45.79
57562;BME280;43397;51.530;5.974;2023-04-09T00:12:28;76454.72;;;-145.90;43.06
57562;BME280;43397;51.530;5.974;2023-04-09T00:14:53;76495.25;;;-145.90;43.14
57562;BME280;43397;51.530;5.974;2023-04-09T00:17:19;76487.16;;;-145.90;43.49
57562;BME280;43397;51.530;5.974;2023-04-09T00:19:45;76612.84;;;-145.90;44.40
57562;BME280;43397;51.530;5.974;2023-04-09T00:22:10;76689.88;;;-145.90;47.01
57562;BME280;43397;51.530;5.974;2023-04-09T00:24:36;76762.84;;;-145.90;48.56
57562;BME280;43397;51.530;5.974;2023-04-09T00:27:02;76651.34;;;-145.90;47.69
57562;BME280;43397;51.530;5.974;2023-04-09T00:29:29;76535.81;;;-145.90;44.77
57562;BME280;43397;51.530;5.974;2023-04-09T00:31:54;76574.31;;;-145.90;44.88
57562;BME280;43397;51.530;5.974;2023-04-09T00:34:20;76643.25;;;-145.90;47.29
57562;BME280;43397;51.530;5.974;2023-04-09T00:36:46;76805.41;;;-145.90;49.23
57562;BME280;43397;51.530;5.974;2023-04-09T00:39:11;76564.19;;;-145.90;45.50
57562;BME280;43397;51.530;5.974;2023-04-09T00:41:37;76566.22;;;-145.90;45.56
57562;BME280;43397;51.530;5.974;2023-04-09T00:44:03;76657.44;;;-145.90;45.90
57562;BME280;43397;51.530;5.974;2023-04-09T00:46:30;76562.16;;;-145.90;45.04
57562;BME280;43397;51.530;5.974;2023-04-09T00:48:56;76590.53;;;-145.90;46.04
57562;BME280;43397;51.530;5.974;2023-04-09T00:51:22;76527.69;;;-145.90;45.09
57562;BME280;43397;51.530;5.974;2023-04-09T00:53:47;76410.13;;;-145.90;42.94
57562;BME280;43397;51.530;5.974;2023-04-09T00:56:14;76631.09;;;-145.90;45.80
57562;BME280;43397;51.530;5.974;2023-04-09T00:58:41;76582.44;;;-145.90;45.61
57562;BME280;43397;51.530;5.974;2023-04-09T01:01:06;76779.06;;;-145.90;47.85
57562;BME280;43397;51.530;5.974;2023-04-09T01:03:34;76687.84;;;-145.90;47.31
57562;BME280;43397;51.530;5.974;2023-04-09T01:06:05;76537.84;;;-145.90;44.72
57562;BME280;43397;51.530;5.974;2023-04-09T01:08:38;76558.09;;;-145.90;44.84
57562;BME280;43397;51.530;5.974;2023-04-09T01:11:12;76570.25;;;-145.90;45.04
57562;BME280;43397;51.530;5.974;2023-04-09T01:13:46;76556.06;;;-145.90;45.85
57562;BME280;43397;51.530;5.974;2023-04-09T01:16:15;76554.03;;;-145.90;45.66
57562;BME280;43397;51.530;5.974;2023-04-09T01:18:49;76657.44;;;-145.90;46.70
57562;BME280;43397;51.530;5.974;2023-04-09T01:21:19;76718.25;;;-145.90;48.07
57562;BME280;43397;51.530;5.974;2023-04-09T01:23:51;76718.25;;;-145.90;47.51
57562;BME280;43397;51.530;5.974;2023-04-09T01:26:32;76862.19;;;-145.90;50.68
57562;BME280;43397;51.530;5.974;2023-04-09T01:29:04;76809.47;;;-145.90;49.78
57562;BME280;43397;51.530;5.974;2023-04-09T01:31:34;76708.13;;;-145.90;48.31
57562;BME280;43397;51.530;5.974;2023-04-09T01:34:01;76519.59;;;-145.90;45.17
57562;BME280;43397;51.530;5.974;2023-04-09T01:36:29;76665.53;;;-145.90;47.23
57562;BME280;43397;51.530;5.974;2023-04-09T01:38:55;76732.44;;;-145.90;48.51
57562;BME280;43397;51.530;5.974;2023-04-09T01:41:22;76665.53;;;-145.90;47.72
57562;BME280;43397;51.530;5.974;2023-04-09T01:43:49;76710.16;;;-145.90;47.17
57562;BME280;43397;51.530;5.974;2023-04-09T01:46:17;76817.59;;;-145.90;49.31
57562;BME280;43397;51.530;5.974;2023-04-09T01:48:43;76797.31;;;-145.90;48.87
57562;BME280;43397;51.530;5.974;2023-04-09T01:51:10;76728.38;;;-145.90;48.63
57562;BME280;43397;51.530;5.974;2023-04-09T01:53:35;76807.44;;;-145.90;49.17
57562;BME280;43397;51.530;5.974;2023-04-09T01:56:01;76801.38;;;-145.90;48.13
57562;BME280;43397;51.530;5.974;2023-04-09T01:58:27;76760.81;;;-145.90;48.72
57562;BME280;43397;51.530;5.974;2023-04-09T02:00:57;76837.84;;;-145.90;48.88
57562;BME280;43397;51.530;5.974;2023-04-09T02:03:28;76781.09;;;-145.90;48.20
57562;BME280;43397;51.530;5.974;2023-04-09T02:06:05;76762.84;;;-145.90;47.53
57562;BME280;43397;51.530;5.974;2023-04-09T02:08:33;76864.22;;;-145.90;49.13
57562;BME280;43397;51.530;5.974;2023-04-09T02:11:02;76872.31;;;-145.90;49.63
57562;BME280;43397;51.530;5.974;2023-04-09T02:13:29;76920.97;;;-145.90;50.42
57562;BME280;43397;51.530;5.974;2023-04-09T02:15:57;76882.47;;;-145.90;50.37
57562;BME280;43397;51.530;5.974;2023-04-09T02:18:26;76843.94;;;-145.90;48.25
57562;BME280;43397;51.530;5.974;2023-04-09T02:20:52;76813.53;;;-145.90;47.71
57562;BME280;43397;51.530;5.974;2023-04-09T02:23:18;76833.81;;;-145.90;47.09
57562;BME280;43397;51.530;5.974;2023-04-09T02:25:44;76874.34;;;-145.90;47.67
57562;BME280;43397;51.530;5.974;2023-04-09T02:28:10;76886.50;;;-145.90;48.91
57562;BME280;43397;51.530;5.974;2023-04-09T02:30:36;76957.47;;;-145.90;49.52
57562;BME280;43397;51.530;5.974;2023-04-09T02:33:02;76971.66;;;-145.90;50.04
57562;BME280;43397;51.530;5.974;2023-04-09T02:35:29;76955.44;;;-145.90;49.82
57562;BME280;43397;51.530;5.974;2023-04-09T02:37:54;76998.03;;;-145.90;50.63
57562;BME280;43397;51.530;5.974;2023-04-09T02:40:20;76969.63;;;-145.90;49.80
57562;BME280;43397;51.530;5.974;2023-04-09T02:42:46;77071.00;;;-145.90;50.85
57562;BME280;43397;51.530;5.974;2023-04-09T02:45:11;77022.34;;;-145.90;49.85
57562;BME280;43397;51.530;5.974;2023-04-09T02:47:37;76916.94;;;-145.90;48.50
57562;BME280;43397;51.530;5.974;2023-04-09T02:50:03;76829.75;;;-145.90;46.93
57562;BME280;43397;51.530;5.974;2023-04-09T02:52:30;77060.88;;;-145.90;50.60
57562;BME280;43397;51.530;5.974;2023-04-09T02:54:56;77010.19;;;-145.90;50.49
57562;BME280;43397;51.530;5.974;2023-04-09T02:57:22;77030.47;;;-145.90;50.58
57562;BME280;43397;51.530;5.974;2023-04-09T02:59:47;77026.41;;;-145.90;50.20
57562;BME280;43397;51.530;5.974;2023-04-09T03:02:13;76969.63;;;-145.90;49.47
57562;BME280;43397;51.530;5.974;2023-04-09T03:04:38;76945.31;;;-145.90;49.55
57562;BME280;43397;51.530;5.974;2023-04-09T03:07:04;76908.81;;;-145.90;48.30
57562;BME280;43397;51.530;5.974;2023-04-09T03:09:31;76880.44;;;-145.90;47.61
57562;BME280;43397;51.530;5.974;2023-04-09T03:11:57;76868.28;;;-145.90;47.46
57562;BME280;43397;51.530;5.974;2023-04-09T03:14:22;76908.81;;;-145.90;47.83
57562;BME280;43397;51.530;5.974;2023-04-09T03:16:48;77064.91;;;-145.90;50.55
57562;BME280;43397;51.530;5.974;2023-04-09T03:19:14;76943.28;;;-145.90;48.99
57562;BME280;43397;51.530;5.974;2023-04-09T03:21:40;76959.50;;;-145.90;49.14
57562;BME280;43397;51.530;5.974;2023-04-09T03:24:05;77050.72;;;-145.90;49.47
57562;BME280;43397;51.530;5.974;2023-04-09T03:26:33;77030.47;;;-145.90;50.55
57562;BME280;43397;51.530;5.974;2023-04-09T03:28:58;76991.94;;;-145.90;49.27
57562;BME280;43397;51.530;5.974;2023-04-09T03:31:24;77004.09;;;-145.90;49.97
57562;BME280;43397;51.530;5.974;2023-04-09T03:33:50;76973.69;;;-145.90;49.15
57562;BME280;43397;51.530;5.974;2023-04-09T03:36:15;76957.47;;;-145.90;49.29
57562;BME280;43397;51.530;5.974;2023-04-09T03:38:41;77022.34;;;-145.90;50.12
57562;BME280;43397;51.530;5.974;2023-04-09T03:41:06;77097.34;;;-145.90;50.91
57562;BME280;43397;51.530;5.974;2023-04-09T03:43:33;77081.16;;;-145.90;51.15
57562;BME280;43397;51.530;5.974;2023-04-09T03:45:59;77018.28;;;-145.90;50.04
57562;BME280;43397;51.530;5.974;2023-04-09T03:48:25;77010.19;;;-145.90;49.52
57562;BME280;43397;51.530;5.974;2023-04-09T03:50:50;77028.44;;;-145.90;49.72
57562;BME280;43397;51.530;5.974;2023-04-09T03:53:16;76955.44;;;-145.90;48.69
57562;BME280;43397;51.530;5.974;2023-04-09T03:55:42;76912.88;;;-145.90;47.52
57562;BME280;43397;51.530;5.974;2023-04-09T03:58:07;76914.91;;;-145.90;47.26
57562;BME280;43397;51.530;5.974;2023-04-09T04:00:34;76912.88;;;-145.90;47.26
57562;BME280;43397;51.530;5.974;2023-04-09T04:03:00;77036.53;;;-145.90;49.00
57562;BME280;43397;51.530;5.974;2023-04-09T04:05:26;77024.38;;;-145.90;49.07
57562;BME280;43397;51.530;5.974;2023-04-09T04:07:51;77166.28;;;-145.90;51.66
57562;BME280;43397;51.530;5.974;2023-04-09T04:10:17;77135.88;;;-145.90;51.40
57562;BME280;43397;51.530;5.974;2023-04-09T04:12:43;77141.97;;;-145.90;50.86
57562;BME280;43397;51.530;5.974;2023-04-09T04:15:09;76971.66;;;-145.90;48.94
57562;BME280;43397;51.530;5.974;2023-04-09T04:17:36;76912.88;;;-145.90;47.29
57562;BME280;43397;51.530;5.974;2023-04-09T04:20:01;77150.06;;;-145.90;51.19
57562;BME280;43397;51.530;5.974;2023-04-09T04:22:27;77133.84;;;-145.90;51.93
57562;BME280;43397;51.530;5.974;2023-04-09T04:24:53;77111.56;;;-145.90;50.93
57562;BME280;43397;51.530;5.974;2023-04-09T04:27:18;77233.19;;;-145.90;52.90
57562;BME280;43397;51.530;5.974;2023-04-09T04:29:44;77235.22;;;-145.90;53.77
57562;BME280;43397;51.530;5.974;2023-04-09T04:32:09;77255.50;;;-145.90;52.86
57562;BME280;43397;51.530;5.974;2023-04-09T04:34:36;77225.09;;;-145.90;53.22
57562;BME280;43397;51.530;5.974;2023-04-09T04:37:02;77125.75;;;-145.90;50.66
57562;BME280;43397;51.530;5.974;2023-04-09T04:39:29;77119.66;;;-145.90;50.61
57562;BME280;43397;51.530;5.974;2023-04-09T04:41:55;77016.25;;;-145.90;48.39
57562;BME280;43397;51.530;5.974;2023-04-09T04:44:20;77162.25;;;-145.90;50.34
57562;BME280;43397;51.530;5.974;2023-04-09T04:46:46;77158.19;;;-145.90;49.99
57562;BME280;43397;51.530;5.974;2023-04-09T04:49:12;77054.78;;;-145.90;49.60
57562;BME280;43397;51.530;5.974;2023-04-09T04:51:38;76935.16;;;-145.90;47.09
57562;BME280;43397;51.530;5.974;2023-04-09T04:54:04;77018.28;;;-145.90;47.91
57562;BME280;43397;51.530;5.974;2023-04-09T04:56:30;77010.19;;;-145.90;47.24
57562;BME280;43397;51.530;5.974;2023-04-09T04:58:55;77182.50;;;-145.90;50.42
57562;BME280;43397;51.530;5.974;2023-04-09T05:01:21;77188.59;;;-145.90;51.18
57562;BME280;43397;51.530;5.974;2023-04-09T05:03:47;77160.22;;;-145.90;51.00
57562;BME280;43397;51.530;5.974;2023-04-09T05:06:12;77237.25;;;-145.90;51.62
57562;BME280;43397;51.530;5.974;2023-04-09T05:08:39;77263.63;;;-145.90;52.71
57562;BME280;43397;51.530;5.974;2023-04-09T05:11:05;77263.63;;;-145.90;53.11
57562;BME280;43397;51.530;5.974;2023-04-09T05:13:31;77121.69;;;-145.90;51.25
57562;BME280;43397;51.530;5.974;2023-04-09T05:15:56;77225.09;;;-145.90;52.50
57562;BME280;43397;51.530;5.974;2023-04-09T05:18:22;77251.44;;;-145.90;52.95
57562;BME280;43397;51.530;5.974;2023-04-09T05:20:47;77162.25;;;-145.90;51.82
57562;BME280;43397;51.530;5.974;2023-04-09T05:23:13;77212.94;;;-145.90;52.31
57562;BME280;43397;51.530;5.974;2023-04-09T05:25:40;77111.56;;;-145.90;50.31
57562;BME280;43397;51.530;5.974;2023-04-09T05:28:06;77182.50;;;-145.90;51.79
57562;BME280;43397;51.530;5.974;2023-04-09T05:30:31;77119.66;;;-145.90;50.77
57562;BME280;43397;51.530;5.974;2023-04-09T05:32:57;77113.59;;;-145.90;50.42
57562;BME280;43397;51.530;5.974;2023-04-09T05:35:23;77095.34;;;-145.90;50.49
57562;BME280;43397;51.530;5.974;2023-04-09T05:37:48;77148.03;;;-145.90;51.31
57562;BME280;43397;51.530;5.974;2023-04-09T05:40:14;77121.69;;;-145.90;50.99
57562;BME280;43397;51.530;5.974;2023-04-09T05:42:41;77099.38;;;-145.90;50.91
57562;BME280;43397;51.530;5.974;2023-04-09T05:45:08;77083.16;;;-145.90;50.15
57562;BME280;43397;51.530;5.974;2023-04-09T05:47:34;77022.34;;;-145.90;49.23
57562;BME280;43397;51.530;5.974;2023-04-09T05:49:59;77044.66;;;-145.90;49.86
57562;BME280;43397;51.530;5.974;2023-04-09T05:52:25;77036.53;;;-145.90;49.74
57562;BME280;43397;51.530;5.974;2023-04-09T05:54:50;77026.41;;;-145.90;50.00
57562;BME280;43397;51.530;5.974;2023-04-09T05:57:16;77127.78;;;-145.90;50.96
57562;BME280;43397;51.530;5.974;2023-04-09T05:59:43;77087.22;;;-145.90;51.16
57562;BME280;43397;51.530;5.974;2023-04-09T06:02:09;77044.66;;;-145.90;50.61
57562;BME280;43397;51.530;5.974;2023-04-09T06:04:34;77121.69;;;-145.90;51.28
57562;BME280;43397;51.530;5.974;2023-04-09T06:07:01;77044.66;;;-145.90;50.59
57562;BME280;43397;51.530;5.974;2023-04-09T06:09:26;77016.25;;;-145.90;50.23
57562;BME280;43397;51.530;5.974;2023-04-09T06:11:52;77099.38;;;-145.90;51.21
57562;BME280;43397;51.530;5.974;2023-04-09T06:14:18;76979.78;;;-145.90;50.06
57562;BME280;43397;51.530;5.974;2023-04-09T06:16:45;77062.91;;;-145.90;51.44
57562;BME280;43397;51.530;5.974;2023-04-09T06:19:10;77028.44;;;-145.90;51.22
57562;BME280;43397;51.530;5.974;2023-04-09T06:21:36;76957.47;;;-145.90;49.68
57562;BME280;43397;51.530;5.974;2023-04-09T06:24:02;76931.13;;;-145.90;49.09
57562;BME280;43397;51.530;5.974;2023-04-09T06:26:28;77010.19;;;-145.90;50.21
57562;BME280;43397;51.530;5.974;2023-04-09T06:28:54;76975.72;;;-145.90;49.58
57562;BME280;43397;51.530;5.974;2023-04-09T06:31:20;76929.09;;;-145.90;48.93
57562;BME280;43397;51.530;5.974;2023-04-09T06:33:47;76910.84;;;-145.90;48.67
57562;BME280;43397;51.530;5.974;2023-04-09T06:36:12;76837.84;;;-145.90;46.77
57562;BME280;43397;51.530;5.974;2023-04-09T06:38:38;76925.03;;;-145.90;48.91
57562;BME280;43397;51.530;5.974;2023-04-09T06:41:03;76910.84;;;-145.90;47.45
57562;BME280;43397;51.530;5.974;2023-04-09T06:43:29;76894.63;;;-145.90;48.32
57562;BME280;43397;51.530;5.974;2023-04-09T06:45:55;76807.44;;;-145.90;47.05
57562;BME280;43397;51.530;5.974;2023-04-09T06:48:20;76795.28;;;-145.90;46.89
57562;BME280;43397;51.530;5.974;2023-04-09T06:50:47;76841.91;;;-145.90;46.75
57562;BME280;43397;51.530;5.974;2023-04-09T06:53:14;76811.50;;;-145.90;46.87
57562;BME280;43397;51.530;5.974;2023-04-09T06:55:39;76760.81;;;-145.90;46.17
57562;BME280;43397;51.530;5.974;2023-04-09T06:58:05;76675.69;;;-145.90;44.96
57562;BME280;43397;51.530;5.974;2023-04-09T07:00:31;76466.88;;;-145.90;41.49
57562;BME280;43397;51.530;5.974;2023-04-09T07:02:56;76653.38;;;-145.90;43.50
57562;BME280;43397;51.530;5.974;2023-04-09T07:05:22;76712.16;;;-145.90;45.24
57562;BME280;43397;51.530;5.974;2023-04-09T07:07:49;76622.97;;;-145.90;44.02
57562;BME280;43397;51.530;5.974;2023-04-09T07:10:14;76379.72;;;-145.90;41.38
57562;BME280;43397;51.530;5.974;2023-04-09T07:12:40;76562.16;;;-145.90;42.46
57562;BME280;43397;51.530;5.974;2023-04-09T07:15:06;76606.75;;;-145.90;42.31
57562;BME280;43397;51.530;5.974;2023-04-09T07:17:32;76600.69;;;-145.90;43.19
57562;BME280;43397;51.530;5.974;2023-04-09T07:19:58;76627.03;;;-145.90;42.76
57562;BME280;43397;51.530;5.974;2023-04-09T07:22:26;76454.72;;;-145.90;40.82
57562;BME280;43397;51.530;5.974;2023-04-09T07:24:53;76475.00;;;-145.90;40.55
57562;BME280;43397;51.530;5.974;2023-04-09T07:27:18;76412.16;;;-145.90;40.03
57562;BME280;43397;51.530;5.974;2023-04-09T07:29:44;76391.88;;;-145.90;38.60
57562;BME280;43397;51.530;5.974;2023-04-09T07:32:10;76432.41;;;-145.90;38.85
57562;BME280;43397;51.530;5.974;2023-04-09T07:34:35;76343.22;;;-145.90;39.84
57562;BME280;43397;51.530;5.974;2023-04-09T07:37:01;76266.22;;;-145.90;37.49
57562;BME280;43397;51.530;5.974;2023-04-09T07:39:27;76245.94;;;-145.90;36.12
57562;BME280;43397;51.530;5.974;2023-04-09T07:41:53;76444.59;;;-145.90;38.01
57562;BME280;43397;51.530;5.974;2023-04-09T07:44:19;76284.44;;;-145.90;36.94
57562;BME280;43397;51.530;5.974;2023-04-09T07:46:45;76079.72;;;-145.90;34.84
57562;BME280;43397;51.530;5.974;2023-04-09T07:49:10;76205.41;;;-145.90;35.07
57562;BME280;43397;51.530;5.974;2023-04-09T07:51:36;75984.47;;;-145.90;34.05
57562;BME280;43397;51.530;5.974;2023-04-09T07:54:02;75986.50;;;-145.90;32.99
57562;BME280;43397;51.530;5.974;2023-04-09T07:56:27;76148.63;;;-145.90;34.28
57562;BME280;43397;51.530;5.974;2023-04-09T07:58:54;76434.44;;;-145.90;37.15
57562;BME280;43397;51.530;5.974;2023-04-09T08:01:20;76304.72;;;-145.90;36.26
57562;BME280;43397;51.530;5.974;2023-04-09T08:03:46;76264.19;;;-145.90;36.94
57562;BME280;43397;51.530;5.974;2023-04-09T08:06:11;76266.22;;;-145.90;35.82
57562;BME280;43397;51.530;5.974;2023-04-09T08:08:37;76170.94;;;-145.90;36.20
57562;BME280;43397;51.530;5.974;2023-04-09T08:11:03;76245.94;;;-145.90;35.63
57562;BME280;43397;51.530;5.974;2023-04-09T08:13:29;76108.09;;;-145.90;34.29
57562;BME280;43397;51.530;5.974;2023-04-09T08:15:59;76106.06;;;-145.90;34.68
57562;BME280;43397;51.530;5.974;2023-04-09T08:18:24;76219.59;;;-145.90;35.59
57562;BME280;43397;51.530;5.974;2023-04-09T08:20:50;76278.38;;;-145.90;35.24
57562;BME280;43397;51.530;5.974;2023-04-09T08:23:16;76227.69;;;-145.90;34.69
57562;BME280;43397;51.530;5.974;2023-04-09T08:25:41;76197.28;;;-145.90;34.97
57562;BME280;43397;51.530;5.974;2023-04-09T08:28:07;76203.38;;;-145.90;35.85
57562;BME280;43397;51.530;5.974;2023-04-09T08:30:33;76067.56;;;-145.90;33.84
57562;BME280;43397;51.530;5.974;2023-04-09T08:33:00;75899.34;;;-145.90;33.65
57562;BME280;43397;51.530;5.974;2023-04-09T08:35:26;75862.84;;;-145.90;32.31
57562;BME280;43397;51.530;5.974;2023-04-09T08:37:51;76132.44;;;-145.90;34.07
57562;BME280;43397;51.530;5.974;2023-04-09T08:40:17;76061.47;;;-145.90;33.45
57562;BME280;43397;51.530;5.974;2023-04-09T08:42:44;76069.59;;;-145.90;33.95
57562;BME280;43397;51.530;5.974;2023-04-09T08:45:10;76031.06;;;-145.90;33.57
57562;BME280;43397;51.530;5.974;2023-04-09T08:47:37;76247.97;;;-145.90;34.80
57562;BME280;43397;51.530;5.974;2023-04-09T08:50:07;76120.25;;;-145.90;33.62
57562;BME280;43397;51.530;5.974;2023-04-09T08:52:33;76031.06;;;-145.90;32.85
57562;BME280;43397;51.530;5.974;2023-04-09T08:54:59;75881.09;;;-145.90;32.30
57562;BME280;43397;51.530;5.974;2023-04-09T08:57:25;75945.94;;;-145.90;31.92
57562;BME280;43397;51.530;5.974;2023-04-09T08:59:51;75966.22;;;-145.90;32.11
57562;BME280;43397;51.530;5.974;2023-04-09T09:02:17;75954.06;;;-145.90;32.31
57562;BME280;43397;51.530;5.974;2023-04-09T09:04:44;76000.69;;;-145.90;32.86
57562;BME280;43397;51.530;5.974;2023-04-09T09:07:11;75945.94;;;-145.90;32.78
57562;BME280;43397;51.530;5.974;2023-04-09T09:09:49;76039.19;;;-145.90;32.42
57562;BME280;43397;51.530;5.974;2023-04-09T09:12:30;75917.56;;;-145.90;32.33
57562;BME280;43397;51.530;5.974;2023-04-09T09:14:55;75976.34;;;-145.90;32.66
57562;BME280;43397;51.530;5.974;2023-04-09T09:17:21;76079.72;;;-145.90;31.97
57562;BME280;43397;51.530;5.974;2023-04-09T09:19:47;75903.38;;;-145.90;31.83
57562;BME280;43397;51.530;5.974;2023-04-09T09:22:14;75903.38;;;-145.90;31.33
57562;BME280;43397;51.530;5.974;2023-04-09T09:24:44;76077.69;;;-145.90;32.84
57562;BME280;43397;51.530;5.974;2023-04-09T09:27:10;76069.59;;;-145.90;32.41
57562;BME280;43397;51.530;5.974;2023-04-09T09:29:40;76002.69;;;-145.90;31.63
57562;BME280;43397;51.530;5.974;2023-04-09T09:32:12;75968.25;;;-145.90;31.64
57562;BME280;43397;51.530;5.974;2023-04-09T09:34:38;75921.63;;;-145.90;32.30
57562;BME280;43397;51.530;5.974;2023-04-09T09:37:26;76018.91;;;-145.90;31.74
57562;BME280;43397;51.530;5.974;2023-04-09T09:39:52;75945.94;;;-145.90;31.98
57562;BME280;43397;51.530;5.974;2023-04-09T09:42:17;75931.75;;;-145.90;32.97
57562;BME280;43397;51.530;5.974;2023-04-09T09:44:43;76057.44;;;-145.90;31.32
57562;BME280;43397;51.530;5.974;2023-04-09T09:47:11;76014.88;;;-145.90;32.04
57562;BME280;43397;51.530;5.974;2023-04-09T09:49:37;76010.81;;;-145.90;31.81
57562;BME280;43397;51.530;5.974;2023-04-09T09:52:05;75909.47;;;-145.90;31.55
57562;BME280;43397;51.530;5.974;2023-04-09T09:54:40;75903.38;;;-145.90;30.99
57562;BME280;43397;51.530;5.974;2023-04-09T09:57:08;75913.53;;;-145.90;30.78
57562;BME280;43397;51.530;5.974;2023-04-09T09:59:36;75941.91;;;-145.90;30.12
57562;BME280;43397;51.530;5.974;2023-04-09T10:02:04;75895.28;;;-145.90;31.14
57562;BME280;43397;51.530;5.974;2023-04-09T10:04:32;75848.66;;;-145.90;29.75
57562;BME280;43397;51.530;5.974;2023-04-09T10:07:00;75992.56;;;-145.90;31.42
57562;BME280;43397;51.530;5.974;2023-04-09T10:09:26;75947.97;;;-145.90;29.58
57562;BME280;43397;51.530;5.974;2023-04-09T10:11:54;75982.44;;;-145.90;30.11
57562;BME280;43397;51.530;5.974;2023-04-09T10:14:22;76016.88;;;-145.90;29.98
57562;BME280;43397;51.530;5.974;2023-04-09T10:16:48;75854.75;;;-145.90;28.95
57562;BME280;43397;51.530;5.974;2023-04-09T10:19:15;75678.41;;;-145.90;28.33
57562;BME280;43397;51.530;5.974;2023-04-09T10:21:44;75755.44;;;-145.90;28.38
57562;BME280;43397;51.530;5.974;2023-04-09T10:24:12;75621.66;;;-145.90;28.47
57562;BME280;43397;51.530;5.974;2023-04-09T10:26:40;75575.06;;;-145.90;27.63
57562;BME280;43397;51.530;5.974;2023-04-09T10:29:08;75751.38;;;-145.90;28.66
57562;BME280;43397;51.530;5.974;2023-04-09T10:31:52;75672.34;;;-145.90;28.41
57562;BME280;43397;51.530;5.974;2023-04-09T10:34:20;75739.22;;;-145.90;28.61
57562;BME280;43397;51.530;5.974;2023-04-09T10:36:49;75737.19;;;-145.90;28.06
57562;BME280;43397;51.530;5.974;2023-04-09T10:39:16;75923.66;;;-145.90;29.79
57562;BME280;43397;51.530;5.974;2023-04-09T10:41:42;75848.66;;;-145.90;29.23
57562;BME280;43397;51.530;5.974;2023-04-09T10:44:20;75672.34;;;-145.90;29.33
57562;BME280;43397;51.530;5.974;2023-04-09T10:46:46;75605.47;;;-145.90;28.77
57562;BME280;43397;51.530;5.974;2023-04-09T10:49:15;75473.72;;;-145.90;26.78
57562;BME280;43397;51.530;5.974;2023-04-09T10:51:42;75704.75;;;-145.90;28.47
57562;BME280;43397;51.530;5.974;2023-04-09T10:54:39;75814.22;;;-145.90;30.41
57562;BME280;43397;51.530;5.974;2023-04-09T10:57:18;75850.69;;;-145.90;30.73
57562;BME280;43397;51.530;5.974;2023-04-09T10:59:47;75846.63;;;-145.90;31.09
57562;BME280;43397;51.530;5.974;2023-04-09T11:05:20;75773.66;;;-145.90;30.42
57562;BME280;43397;51.530;5.974;2023-04-09T11:07:53;75714.91;;;-145.90;29.49
57562;BME280;43397;51.530;5.974;2023-04-09T11:10:21;75684.50;;;-145.90;29.79
57562;BME280;43397;51.530;5.974;2023-04-09T11:12:47;75654.09;;;-145.90;29.02
57562;BME280;43397;51.530;5.974;2023-04-09T11:15:19;75729.09;;;-145.90;30.38
57562;BME280;43397;51.530;5.974;2023-04-09T11:17:45;75763.53;;;-145.90;29.24
57562;BME280;43397;51.530;5.974;2023-04-09T11:20:12;75838.53;;;-145.90;29.71
57562;BME280;43397;51.530;5.974;2023-04-09T11:22:37;75854.75;;;-145.90;30.06
57562;BME280;43397;51.530;5.974;2023-04-09T11:25:04;75899.34;;;-145.90;30.21
57562;BME280;43397;51.530;5.974;2023-04-09T11:27:30;75816.22;;;-145.90;30.20
57562;BME280;43397;51.530;5.974;2023-04-09T11:29:55;75931.75;;;-145.90;30.39
57562;BME280;43397;51.530;5.974;2023-04-09T11:32:27;75718.94;;;-145.90;30.23
57562;BME280;43397;51.530;5.974;2023-04-09T11:34:53;75716.94;;;-145.90;29.00
57562;BME280;43397;51.530;5.974;2023-04-09T11:37:19;75595.31;;;-145.90;28.76
57562;BME280;43397;51.530;5.974;2023-04-09T11:39:45;75838.53;;;-145.90;30.33
57562;BME280;43397;51.530;5.974;2023-04-09T11:42:12;75672.34;;;-145.90;28.88
57562;BME280;43397;51.530;5.974;2023-04-09T11:44:38;75941.91;;;-145.90;31.26
57562;BME280;43397;51.530;5.974;2023-04-09T11:47:04;75842.59;;;-145.90;30.08
57562;BME280;43397;51.530;5.974;2023-04-09T11:49:31;76055.41;;;-145.90;31.63
57562;BME280;43397;51.530;5.974;2023-04-09T11:51:57;75964.19;;;-145.90;32.22
57562;BME280;43397;51.530;5.974;2023-04-09T11:54:23;75838.53;;;-145.90;29.89
57562;BME280;43397;51.530;5.974;2023-04-09T11:56:49;75731.13;;;-145.90;29.65
57562;BME280;43397;51.530;5.974;2023-04-09T11:59:14;75767.59;;;-145.90;29.44
57562;BME280;43397;51.530;5.974;2023-04-09T12:01:40;75911.50;;;-145.90;30.39
57562;BME280;43397;51.530;5.974;2023-04-09T12:04:06;75885.16;;;-145.90;30.86
57562;BME280;43397;51.530;5.974;2023-04-09T12:06:39;75860.81;;;-145.90;30.87
57562;BME280;43397;51.530;5.974;2023-04-09T12:09:07;75954.06;;;-145.90;30.82
57562;BME280;43397;51.530;5.974;2023-04-09T12:11:35;75978.38;;;-145.90;31.05
57562;BME280;43397;51.530;5.974;2023-04-09T12:14:01;75783.81;;;-145.90;30.02
57562;BME280;43397;51.530;5.974;2023-04-09T12:16:29;75528.44;;;-145.90;28.28
57562;BME280;43397;51.530;5.974;2023-04-09T12:18:54;75437.25;;;-145.90;27.98
57562;BME280;43397;51.530;5.974;2023-04-09T12:21:23;75702.75;;;-145.90;29.32
57562;BME280;43397;51.530;5.974;2023-04-09T12:23:50;75696.66;;;-145.90;28.95
57562;BME280;43397;51.530;5.974;2023-04-09T12:26:15;75479.81;;;-145.90;27.22
57562;BME280;43397;51.530;5.974;2023-04-09T12:28:41;75496.03;;;-145.90;27.61
57562;BME280;43397;51.530;5.974;2023-04-09T12:31:08;75078.56;;;-145.90;25.70
57562;BME280;43397;51.530;5.974;2023-04-09T12:33:34;75094.78;;;-145.90;25.01
57562;BME280;43397;51.530;5.974;2023-04-09T12:35:59;74989.41;;;-145.90;24.62
57562;BME280;43397;51.530;5.974;2023-04-09T12:38:25;75358.22;;;-145.90;26.41
57562;BME280;43397;51.530;5.974;2023-04-09T12:40:52;75408.88;;;-145.90;26.84